createdAt,value
2019-02-16T00:02:05.350Z,60.25
2019-02-16T00:04:11.651Z,61.13
2019-02-16T00:06:17.866Z,70.37
2019-02-16T00:08:24.095Z,59.65
2019-02-16T00:10:30.536Z,56.95
2019-02-16T00:12:37.074Z,68.30
2019-02-16T00:14:43.440Z,59.10
2019-02-16T00:16:49.708Z,61.23
2019-02-16T00:18:55.996Z,66.45
2019-02-16T00:21:04.284Z,71.62
2019-02-16T00:23:10.259Z,71.12
2019-02-16T00:25:16.907Z,69.92
2019-02-16T00:27:23.267Z,65.03
2019-02-16T00:29:29.558Z,71.35
2019-02-16T00:31:35.900Z,66.65
2019-02-16T00:33:42.268Z,66.25
2019-02-16T00:35:48.570Z,68.15
2019-02-16T00:37:54.906Z,65.40
2019-02-16T00:40:01.204Z,69.95
2019-02-16T00:42:07.577Z,65.35
2019-02-16T00:44:13.901Z,60.23
2019-02-16T00:46:20.425Z,67.70
2019-02-16T00:48:26.721Z,69.62
2019-02-16T00:50:33.046Z,70.50
2019-02-16T00:52:39.266Z,55.80
2019-02-16T00:54:45.749Z,75.52
2019-02-16T00:56:51.989Z,71.10
2019-02-16T00:58:58.359Z,65.57
2019-02-16T01:01:04.650Z,63.52
2019-02-16T01:03:10.968Z,71.87
2019-02-16T01:05:17.341Z,69.42
2019-02-16T01:07:23.705Z,61.20
2019-02-16T01:09:30.087Z,65.85
2019-02-16T01:11:36.395Z,67.90
2019-02-16T01:13:42.634Z,68.10
2019-02-16T01:15:48.901Z,70.25
2019-02-16T01:17:55.240Z,67.42
2019-02-16T01:20:01.421Z,72.12
2019-02-16T01:22:07.684Z,69.82
2019-02-16T01:24:13.987Z,71.97
2019-02-16T01:26:20.156Z,72.50
2019-02-16T01:28:26.427Z,63.92
2019-02-16T01:30:32.678Z,64.70
2019-02-16T01:32:38.987Z,66.30
2019-02-16T01:34:45.167Z,63.80
2019-02-16T01:36:51.405Z,74.60
2019-02-16T01:38:57.640Z,61.33
2019-02-16T01:41:03.915Z,57.05
2019-02-16T01:43:10.141Z,59.75
2019-02-16T01:45:16.511Z,60.40
2019-02-16T01:47:22.742Z,59.70
2019-02-16T01:49:28.974Z,67.72
2019-02-16T01:51:35.139Z,74.15
2019-02-16T01:53:41.322Z,65.92
2019-02-16T01:55:47.652Z,55.63
2019-02-16T01:57:54.017Z,57.70
2019-02-16T02:00:00.339Z,68.55
2019-02-16T02:02:06.584Z,57.65
2019-02-16T02:04:12.832Z,71.28
2019-02-16T02:06:19.090Z,57.13
2019-02-16T02:08:25.532Z,60.48
2019-02-16T02:10:31.911Z,55.88
2019-02-16T02:12:38.226Z,55.90
2019-02-16T02:14:44.545Z,51.60
2019-02-16T02:16:50.854Z,49.20
2019-02-16T02:18:57.055Z,50.92
2019-02-16T02:21:03.365Z,48.23
2019-02-16T02:23:09.543Z,38.50
2019-02-16T02:25:15.739Z,42.58
2019-02-16T02:27:22.041Z,46.50
2019-02-16T02:29:28.215Z,49.42
2019-02-16T02:31:34.403Z,40.88
2019-02-16T02:33:40.620Z,36.23
2019-02-16T02:35:46.856Z,51.77
2019-02-16T02:37:54.153Z,50.85
2019-02-16T02:40:00.420Z,41.00
2019-02-16T02:42:06.622Z,38.78
2019-02-16T02:44:12.867Z,42.55
2019-02-16T02:46:19.039Z,42.53
2019-02-16T02:48:25.255Z,43.42
2019-02-16T02:50:31.517Z,43.63
2019-02-16T02:52:38.703Z,39.35
2019-02-16T02:54:45.196Z,45.10
2019-02-16T02:56:52.438Z,42.17
2019-02-16T02:58:58.599Z,42.55
2019-02-16T03:01:04.755Z,44.67
2019-02-16T03:03:12.000Z,37.13
2019-02-16T03:05:18.230Z,45.25
2019-02-16T03:07:24.520Z,35.38
2019-02-16T03:09:30.862Z,49.10
2019-02-16T03:11:37.151Z,43.00
2019-02-16T03:13:43.315Z,49.25
2019-02-16T03:15:49.493Z,42.35
2019-02-16T03:17:55.683Z,40.25
2019-02-16T03:20:02.032Z,43.35
2019-02-16T03:22:08.565Z,49.58
2019-02-16T03:24:14.904Z,39.42
2019-02-16T03:26:31.825Z,39.35
2019-02-16T03:28:57.487Z,38.38
2019-02-16T03:31:36.763Z,40.25
2019-02-16T03:33:59.715Z,40.73
2019-02-16T03:36:31.993Z,48.75
2019-02-16T03:38:54.874Z,36.90
2019-02-16T03:41:01.200Z,36.83
2019-02-16T03:43:07.371Z,36.05
2019-02-16T03:45:13.536Z,39.95
2019-02-16T03:47:19.855Z,38.38
2019-02-16T03:49:26.096Z,39.10
2019-02-16T03:51:32.272Z,38.35
2019-02-16T03:53:38.456Z,40.40
2019-02-16T03:55:44.745Z,41.05
2019-02-16T03:57:50.913Z,33.75
2019-02-16T03:59:57.187Z,43.38
2019-02-16T04:02:03.489Z,41.53
2019-02-16T04:04:09.878Z,38.00
2019-02-16T04:06:16.056Z,38.15
2019-02-16T04:08:22.291Z,34.27
2019-02-16T04:10:28.454Z,35.73
2019-02-16T04:12:34.724Z,34.45
2019-02-16T04:14:41.055Z,29.90
2019-02-16T04:16:47.220Z,36.85
2019-02-16T04:18:53.549Z,33.67
2019-02-16T04:20:59.843Z,32.85
2019-02-16T04:23:06.072Z,30.75
2019-02-16T04:25:12.279Z,31.48
2019-02-16T04:27:18.496Z,37.20
2019-02-16T04:29:24.749Z,36.10
2019-02-16T04:31:31.084Z,45.70
2019-02-16T04:33:37.343Z,39.20
2019-02-16T04:35:43.501Z,42.33
2019-02-16T04:37:49.899Z,36.83
2019-02-16T04:39:56.100Z,41.83
2019-02-16T04:42:02.389Z,35.75
2019-02-16T04:44:08.771Z,29.52
2019-02-16T04:46:14.935Z,27.82
2019-02-16T04:48:21.178Z,28.27
2019-02-16T04:50:27.500Z,28.17
2019-02-16T04:52:35.066Z,30.65
2019-02-16T04:54:41.583Z,29.72
2019-02-16T04:56:48.217Z,29.82
2019-02-16T04:58:54.532Z,30.02
2019-02-16T05:01:00.905Z,28.75
2019-02-16T05:03:07.248Z,29.70
2019-02-16T05:05:13.618Z,32.13
2019-02-16T05:07:19.833Z,27.95
2019-02-16T05:09:26.095Z,23.90
2019-02-16T05:11:32.319Z,21.05
2019-02-16T05:13:38.478Z,30.27
2019-02-16T05:15:44.738Z,27.50
2019-02-16T05:17:50.897Z,32.60
2019-02-16T05:19:57.129Z,28.52
2019-02-16T05:22:03.586Z,23.18
2019-02-16T05:24:09.813Z,23.02
2019-02-16T05:26:15.971Z,25.52
2019-02-16T05:28:22.288Z,22.35
2019-02-16T05:30:28.555Z,22.20
2019-02-16T05:32:34.766Z,20.88
2019-02-16T05:34:40.980Z,21.00
2019-02-16T05:36:47.201Z,22.95
2019-02-16T05:38:54.507Z,20.77
2019-02-16T05:41:00.696Z,22.65
2019-02-16T05:43:06.923Z,20.97
2019-02-16T05:45:13.144Z,16.25
2019-02-16T05:47:19.399Z,18.87
2019-02-16T05:49:25.738Z,23.98
2019-02-16T05:51:32.071Z,21.68
2019-02-16T05:53:38.390Z,15.88
2019-02-16T05:55:44.630Z,19.50
2019-02-16T05:57:50.945Z,21.40
2019-02-16T05:59:57.241Z,17.45
2019-02-16T06:02:03.673Z,20.48
2019-02-16T06:04:09.895Z,16.60
2019-02-16T06:06:16.135Z,19.35
2019-02-16T06:08:22.304Z,18.52
2019-02-16T06:10:28.591Z,18.67
2019-02-16T06:12:34.833Z,17.75
2019-02-16T06:14:41.199Z,18.82
2019-02-16T06:16:47.434Z,22.70
2019-02-16T06:18:53.774Z,22.15
2019-02-16T06:21:01.880Z,17.10
2019-02-16T06:23:08.002Z,17.57
2019-02-16T06:25:14.385Z,16.62
2019-02-16T06:27:20.610Z,16.25
2019-02-16T06:29:26.988Z,16.97
2019-02-16T06:31:33.302Z,17.15
2019-02-16T06:33:39.550Z,18.12
2019-02-16T06:35:47.483Z,19.00
2019-02-16T06:37:53.734Z,15.55
2019-02-16T06:40:00.028Z,15.25
2019-02-16T06:42:06.193Z,13.68
2019-02-16T06:44:12.583Z,17.90
2019-02-16T06:46:18.738Z,14.55
2019-02-16T06:48:24.966Z,14.73
2019-02-16T06:50:36.870Z,15.85
2019-02-16T06:52:39.136Z,13.75
2019-02-16T06:54:45.385Z,15.98
2019-02-16T06:57:05.331Z,13.03
2019-02-16T06:59:11.576Z,14.28
2019-02-16T07:01:18.064Z,14.58
2019-02-16T07:03:24.258Z,11.80
2019-02-16T07:05:30.477Z,18.42
2019-02-16T07:07:36.812Z,13.38
2019-02-16T07:09:43.135Z,14.40
2019-02-16T07:11:49.357Z,12.07
2019-02-16T07:13:55.513Z,14.10
2019-02-16T07:16:19.461Z,14.10
2019-02-16T07:18:27.270Z,15.83
2019-02-16T07:20:33.423Z,14.00
2019-02-16T07:22:39.706Z,11.05
2019-02-16T07:24:45.851Z,13.53
2019-02-16T07:26:52.144Z,11.57
2019-02-16T07:28:58.342Z,16.32
2019-02-16T07:31:04.497Z,15.25
2019-02-16T07:33:10.731Z,16.80
2019-02-16T07:35:16.935Z,16.75
2019-02-16T07:37:23.237Z,16.50
2019-02-16T07:39:29.400Z,13.15
2019-02-16T07:41:35.652Z,15.25
2019-02-16T07:43:46.179Z,15.23
2019-02-16T07:45:54.120Z,13.25
2019-02-16T07:48:01.950Z,19.45
2019-02-16T07:50:12.533Z,15.53
2019-02-16T07:52:23.674Z,10.18
2019-02-16T07:54:43.515Z,16.62
2019-02-16T07:56:51.350Z,11.40
2019-02-16T07:58:59.221Z,12.40
2019-02-16T08:01:07.118Z,12.10
2019-02-16T08:03:14.978Z,12.03
2019-02-16T08:05:22.899Z,10.82
2019-02-16T08:07:30.995Z,10.50
2019-02-16T08:09:55.140Z,13.43
2019-02-16T08:12:05.612Z,12.33
2019-02-16T08:14:29.623Z,11.70
2019-02-16T08:16:41.529Z,13.98
2019-02-16T08:19:05.685Z,13.20
2019-02-16T08:21:13.584Z,14.05
2019-02-16T08:23:40.416Z,14.53
2019-02-16T08:25:47.278Z,17.10
2019-02-16T08:27:55.085Z,12.43
2019-02-16T08:30:03.108Z,14.38
2019-02-16T08:32:19.820Z,16.17
2019-02-16T08:34:28.831Z,24.37
2019-02-16T08:36:39.542Z,14.85
2019-02-16T08:38:56.127Z,14.78
2019-02-16T08:41:09.743Z,16.32
2019-02-16T08:43:26.671Z,12.65
2019-02-16T08:45:35.370Z,16.20
2019-02-16T08:47:43.337Z,15.90
2019-02-16T08:50:03.502Z,15.88
2019-02-16T08:52:21.459Z,13.72
2019-02-16T08:54:27.402Z,16.35
2019-02-16T08:56:44.213Z,15.38
2019-02-16T08:58:57.649Z,16.77
2019-02-16T09:01:21.718Z,17.98
2019-02-16T09:03:27.722Z,17.67
2019-02-16T09:05:41.519Z,14.10
2019-02-16T09:07:49.361Z,16.67
2019-02-16T09:10:09.414Z,17.32
2019-02-16T09:12:33.658Z,16.27
2019-02-16T09:14:50.467Z,14.63
2019-02-16T09:17:01.062Z,15.20
2019-02-16T09:19:20.691Z,17.27
2019-02-16T09:21:43.772Z,14.65
2019-02-16T09:23:59.138Z,12.00
2019-02-16T09:26:19.080Z,15.38
2019-02-16T09:28:35.694Z,12.98
2019-02-16T09:30:45.634Z,17.82
2019-02-16T09:32:53.554Z,16.35
2019-02-16T09:35:07.469Z,17.77
2019-02-16T09:37:21.248Z,16.48
2019-02-16T09:39:29.055Z,18.52
2019-02-16T09:41:36.864Z,20.08
2019-02-16T09:44:02.852Z,18.20
2019-02-16T09:46:23.602Z,17.45
2019-02-16T09:48:40.526Z,16.90
2019-02-16T09:50:51.248Z,18.17
2019-02-16T09:53:07.669Z,16.57
2019-02-16T09:55:13.634Z,15.75
2019-02-16T09:57:25.428Z,14.78
2019-02-16T09:59:33.293Z,15.05
2019-02-16T10:01:43.654Z,16.23
2019-02-16T10:03:51.522Z,17.55
2019-02-16T10:05:59.386Z,16.25
2019-02-16T10:08:07.326Z,14.95
2019-02-16T10:10:20.625Z,16.32
2019-02-16T10:12:44.647Z,15.08
2019-02-16T10:14:55.516Z,12.18
2019-02-16T10:17:10.076Z,13.80
2019-02-16T10:19:31.364Z,14.63
2019-02-16T10:21:45.162Z,16.90
2019-02-16T10:23:56.200Z,14.03
2019-02-16T10:26:02.192Z,14.60
2019-02-16T10:28:23.158Z,18.90
2019-02-16T10:30:40.071Z,18.37
2019-02-16T10:33:04.139Z,16.95
2019-02-16T10:35:14.800Z,23.52
2019-02-16T10:37:28.811Z,14.55
2019-02-16T10:39:36.681Z,16.95
2019-02-16T10:41:45.269Z,17.05
2019-02-16T10:43:54.400Z,17.98
2019-02-16T10:48:24.228Z,14.87
2019-02-16T10:50:32.120Z,16.32
2019-02-16T10:52:42.409Z,22.65
2019-02-16T10:54:50.215Z,22.50
2019-02-16T10:57:02.226Z,19.90
2019-02-16T10:59:10.159Z,20.08
2019-02-16T11:01:20.824Z,18.15
2019-02-16T11:03:31.419Z,20.60
2019-02-16T11:05:42.333Z,22.07
2019-02-16T11:07:53.108Z,18.60
2019-02-16T11:10:01.028Z,17.42
2019-02-16T11:12:08.817Z,19.07
2019-02-16T11:14:33.038Z,14.07
2019-02-16T11:16:56.296Z,16.30
2019-02-16T11:19:14.630Z,21.35
2019-02-16T11:21:25.404Z,21.85
2019-02-16T11:23:45.561Z,22.22
2019-02-16T11:25:59.039Z,25.10
2019-02-16T11:28:19.216Z,25.00
2019-02-16T11:30:34.015Z,20.90
2019-02-16T11:32:47.455Z,23.75
2019-02-16T11:34:58.222Z,24.63
2019-02-16T11:37:14.971Z,25.95
2019-02-16T11:39:25.560Z,24.90
2019-02-16T11:41:34.607Z,21.87
2019-02-16T11:45:55.286Z,23.75
2019-02-16T11:48:12.799Z,27.85
2019-02-16T11:50:32.541Z,25.75
2019-02-16T11:52:43.291Z,22.62
2019-02-16T11:55:06.477Z,22.30
2019-02-16T11:57:29.388Z,24.35
2019-02-16T11:59:43.313Z,23.35
2019-02-16T12:01:51.446Z,22.65
2019-02-16T12:04:02.096Z,27.98
2019-02-16T12:06:10.096Z,24.72
2019-02-16T12:08:18.985Z,23.92
2019-02-16T12:10:30.328Z,25.52
2019-02-16T12:12:56.113Z,24.80
2019-02-16T12:15:13.075Z,28.50
2019-02-16T12:17:19.006Z,26.02
2019-02-16T12:19:36.054Z,29.20
2019-02-16T12:21:46.734Z,32.48
2019-02-16T12:23:54.621Z,31.62
2019-02-16T12:26:08.473Z,29.10
2019-02-16T12:28:16.352Z,33.60
2019-02-16T12:30:36.205Z,27.45
2019-02-16T12:32:53.103Z,26.42
2019-02-16T12:35:13.047Z,29.25
2019-02-16T12:37:26.409Z,27.48
2019-02-16T12:39:34.287Z,27.73
2019-02-16T12:41:44.959Z,28.80
2019-02-16T12:43:50.951Z,24.70
2019-02-16T12:45:58.829Z,26.37
2019-02-16T12:48:06.649Z,32.88
2019-02-16T12:50:20.296Z,36.30
2019-02-16T12:52:28.945Z,32.63
2019-02-16T12:54:54.999Z,32.58
2019-02-16T12:57:02.871Z,34.23
2019-02-16T12:59:10.738Z,35.03
2019-02-16T13:01:33.698Z,40.75
2019-02-16T13:03:44.175Z,34.43
2019-02-16T13:06:08.765Z,37.20
2019-02-16T13:08:55.149Z,38.38
2019-02-16T13:11:08.947Z,37.23
2019-02-16T13:13:33.029Z,37.48
2019-02-16T13:15:40.975Z,45.55
2019-02-16T13:17:48.840Z,40.25
2019-02-16T13:19:54.875Z,43.98
2019-02-16T13:22:02.803Z,42.78
2019-02-16T13:24:22.946Z,38.48
2019-02-16T13:26:46.703Z,41.95
2019-02-16T13:29:06.456Z,43.42
2019-02-16T13:31:16.930Z,42.53
2019-02-16T13:33:30.640Z,38.60
2019-02-16T13:35:47.254Z,36.23
2019-02-16T13:38:11.122Z,41.02
2019-02-16T13:40:17.062Z,38.65
2019-02-16T13:42:28.809Z,45.52
2019-02-16T13:44:36.607Z,50.63
2019-02-16T13:46:44.424Z,46.37
2019-02-16T13:48:55.334Z,40.52
2019-02-16T13:51:08.915Z,44.10
2019-02-16T13:53:16.785Z,46.02
2019-02-16T13:55:33.176Z,42.73
2019-02-16T13:57:36.925Z,44.45
2019-02-16T13:59:44.744Z,43.40
2019-02-16T14:01:50.714Z,39.00
2019-02-16T14:04:01.435Z,40.70
2019-02-16T14:06:09.383Z,45.45
2019-02-16T14:08:17.346Z,39.38
2019-02-16T14:10:28.118Z,39.95
2019-02-16T14:12:38.989Z,39.83
2019-02-16T14:14:46.813Z,38.60
2019-02-16T14:16:54.686Z,41.28
2019-02-16T14:19:00.986Z,44.88
2019-02-16T14:21:07.329Z,44.90
2019-02-16T14:23:14.139Z,42.05
2019-02-16T14:25:21.934Z,45.75
2019-02-16T14:27:28.324Z,46.85
2019-02-16T14:29:34.526Z,46.37
2019-02-16T14:31:40.870Z,44.65
2019-02-16T14:33:47.128Z,46.10
2019-02-16T14:35:53.791Z,47.58
2019-02-16T14:38:11.063Z,46.02
2019-02-16T14:40:17.309Z,46.13
2019-02-16T14:42:23.528Z,47.40
2019-02-16T14:44:29.687Z,49.10
2019-02-16T14:46:36.165Z,46.42
2019-02-16T14:48:42.387Z,43.02
2019-02-16T14:50:48.761Z,50.83
2019-02-16T14:52:55.186Z,44.80
2019-02-16T14:55:01.531Z,48.58
2019-02-16T14:57:07.832Z,47.15
2019-02-16T14:59:14.161Z,49.53
2019-02-16T15:01:20.395Z,57.65
2019-02-16T15:03:26.553Z,53.02
2019-02-16T15:05:32.880Z,55.12
2019-02-16T15:07:39.284Z,45.33
2019-02-16T15:09:45.571Z,45.52
2019-02-16T15:11:51.963Z,43.35
2019-02-16T15:13:58.339Z,60.63
2019-02-16T15:16:04.668Z,50.30
2019-02-16T15:18:10.885Z,63.25
2019-02-16T15:20:17.955Z,52.08
2019-02-16T15:22:24.199Z,62.93
2019-02-16T15:24:32.005Z,58.52
2019-02-16T15:26:39.344Z,50.28
2019-02-16T15:28:45.594Z,51.85
2019-02-16T15:30:51.846Z,49.60
2019-02-16T15:32:59.302Z,55.45
2019-02-16T15:35:06.930Z,55.58
2019-02-16T15:37:15.122Z,51.28
2019-02-16T15:39:22.532Z,58.87
2019-02-16T15:41:28.769Z,49.58
2019-02-16T15:43:35.169Z,52.85
2019-02-16T15:45:41.429Z,50.15
2019-02-16T15:47:47.743Z,50.00
2019-02-16T15:49:54.012Z,53.13
2019-02-16T15:52:00.377Z,52.35
2019-02-16T15:54:06.677Z,47.85
2019-02-16T15:56:13.021Z,46.83
2019-02-16T15:58:19.375Z,55.23
2019-02-16T16:00:29.013Z,48.95
2019-02-16T16:02:35.719Z,51.28
2019-02-16T16:04:42.117Z,46.85
2019-02-16T16:06:48.491Z,47.95
2019-02-16T16:09:02.366Z,56.63
2019-02-16T16:11:15.959Z,50.85
2019-02-16T16:13:22.065Z,52.45
2019-02-16T16:15:41.998Z,53.10
2019-02-16T16:18:04.544Z,42.62
2019-02-16T16:20:15.054Z,53.73
2019-02-16T16:22:22.941Z,54.85
2019-02-16T16:24:28.931Z,47.33
2019-02-16T16:26:43.068Z,42.40
2019-02-16T16:29:00.175Z,58.58
2019-02-16T16:31:03.297Z,51.28
2019-02-16T16:33:29.579Z,50.17
2019-02-16T16:35:36.770Z,52.50
2019-02-16T16:37:59.173Z,51.63
2019-02-16T16:40:17.852Z,57.45
2019-02-16T16:42:23.871Z,48.60
2019-02-16T16:44:34.700Z,53.30
2019-02-16T16:46:51.795Z,60.65
2019-02-16T16:49:19.936Z,61.53
2019-02-16T16:51:33.888Z,58.90
2019-02-16T16:53:44.699Z,56.10
2019-02-16T16:55:55.369Z,62.08
2019-02-16T16:58:04.108Z,55.90
2019-02-16T17:00:26.675Z,61.05
2019-02-16T17:02:50.543Z,62.00
2019-02-16T17:05:10.089Z,54.50
2019-02-16T17:07:21.006Z,61.98
2019-02-16T17:09:29.748Z,60.48
2019-02-16T17:11:53.738Z,59.58
2019-02-16T17:14:01.811Z,53.55
2019-02-16T17:16:07.939Z,60.65
2019-02-16T17:18:19.650Z,63.02
2019-02-16T17:20:36.802Z,61.35
2019-02-16T17:22:47.530Z,64.10
2019-02-16T17:25:01.744Z,59.48
2019-02-16T17:27:13.825Z,65.55
2019-02-16T17:29:37.886Z,70.83
2019-02-16T17:31:48.919Z,62.35
2019-02-16T17:34:12.712Z,74.87
2019-02-16T17:36:37.720Z,61.68
2019-02-16T17:38:57.520Z,68.12
2019-02-16T17:41:24.603Z,72.78
2019-02-16T17:43:35.295Z,60.08
2019-02-16T17:45:47.319Z,75.57
2019-02-16T17:48:04.030Z,74.97
2019-02-16T17:50:12.230Z,77.27
2019-02-16T17:52:38.549Z,76.82
2019-02-16T17:54:46.593Z,67.72
2019-02-16T17:57:12.660Z,68.10
2019-02-16T17:59:20.597Z,76.05
2019-02-16T18:01:31.348Z,76.17
2019-02-16T18:03:39.179Z,76.65
2019-02-16T18:05:49.524Z,72.58
2019-02-16T18:08:00.569Z,75.12
2019-02-16T18:10:08.799Z,73.17
2019-02-16T18:12:32.925Z,76.13
2019-02-16T18:14:42.339Z,72.50
2019-02-16T18:17:06.266Z,72.22
2019-02-16T18:19:14.215Z,77.08
2019-02-16T18:21:24.781Z,78.15
2019-02-16T18:23:40.106Z,86.47
2019-02-16T18:25:55.377Z,77.25
2019-02-16T18:28:06.028Z,70.32
2019-02-16T18:30:18.598Z,77.55
2019-02-16T18:32:31.401Z,70.17
2019-02-16T18:34:39.152Z,70.10
2019-02-16T18:36:55.935Z,78.52
2019-02-16T18:39:20.862Z,76.77
2019-02-16T18:41:38.828Z,72.12
2019-02-16T18:44:03.241Z,88.50
2019-02-16T18:46:12.691Z,81.00
2019-02-16T18:48:20.644Z,75.65
2019-02-16T18:50:43.551Z,73.28
2019-02-16T18:52:54.444Z,73.95
2019-02-16T18:55:11.092Z,72.15
2019-02-16T18:57:21.016Z,79.12
2019-02-16T18:59:32.894Z,81.50
2019-02-16T19:01:38.908Z,71.57
2019-02-16T19:03:51.100Z,74.17
2019-02-16T19:06:01.642Z,69.55
2019-02-16T19:08:16.469Z,77.87
2019-02-16T19:10:32.965Z,73.15
2019-02-16T19:12:43.872Z,75.70
2019-02-16T19:15:00.639Z,78.28
2019-02-16T19:17:08.477Z,81.25
2019-02-16T19:19:26.812Z,79.55
2019-02-16T19:21:40.521Z,75.75
2019-02-16T19:24:03.115Z,73.17
2019-02-16T19:26:14.562Z,70.67
2019-02-16T19:28:26.762Z,82.10
2019-02-16T19:30:34.735Z,72.08
2019-02-16T19:32:45.241Z,71.07
2019-02-16T19:35:00.368Z,79.65
2019-02-16T19:37:23.745Z,84.95
2019-02-16T19:39:35.689Z,74.85
2019-02-16T19:41:52.438Z,84.97
2019-02-16T19:44:00.341Z,85.97
2019-02-16T19:46:06.409Z,73.90
2019-02-16T19:48:17.013Z,74.90
2019-02-16T19:50:24.980Z,82.62
2019-02-16T19:52:40.377Z,77.72
2019-02-16T19:54:54.372Z,83.75
2019-02-16T19:57:06.166Z,86.40
2019-02-16T19:59:14.116Z,80.12
2019-02-16T20:01:22.144Z,76.72
2019-02-16T20:03:32.501Z,68.75
2019-02-16T20:05:45.228Z,72.08
2019-02-16T20:07:53.105Z,79.12
2019-02-16T20:12:24.457Z,82.10
2019-02-16T20:14:32.400Z,77.87
2019-02-16T20:16:56.448Z,79.60
2019-02-16T20:19:13.078Z,78.15
2019-02-16T20:21:22.572Z,78.30
2019-02-16T20:23:41.199Z,80.92
2019-02-16T20:25:51.828Z,74.70
2019-02-16T20:28:15.962Z,69.58
2019-02-16T20:30:28.078Z,77.67
2019-02-16T20:32:49.015Z,83.70
2019-02-16T20:34:56.640Z,77.25
2019-02-16T20:37:08.918Z,74.72
2019-02-16T20:39:26.681Z,71.10
2019-02-16T20:41:39.196Z,79.77
2019-02-16T20:44:03.449Z,79.82
2019-02-16T20:46:11.389Z,76.33
2019-02-16T20:48:29.267Z,76.75
2019-02-16T20:50:53.331Z,83.42
2019-02-16T20:53:21.264Z,72.03
2019-02-16T20:55:31.004Z,77.27
2019-02-16T20:57:47.778Z,77.53
2019-02-16T20:59:52.608Z,75.95
2019-02-16T21:02:05.120Z,86.42
2019-02-16T21:04:27.999Z,80.67
2019-02-16T21:06:50.563Z,78.85
2019-02-16T21:09:14.492Z,84.92
2019-02-16T21:11:38.265Z,70.25
2019-02-16T21:13:50.541Z,80.12
2019-02-16T21:16:01.274Z,81.05
2019-02-16T21:18:13.265Z,77.67
2019-02-16T21:20:37.056Z,73.83
2019-02-16T21:23:01.978Z,78.67
2019-02-16T21:25:26.126Z,94.25
2019-02-16T21:27:35.340Z,76.53
2019-02-16T21:31:59.375Z,79.92
2019-02-16T21:34:19.206Z,74.80
2019-02-16T21:36:26.377Z,79.87
2019-02-16T21:38:39.193Z,77.62
2019-02-16T21:40:51.246Z,89.25
2019-02-16T21:43:08.172Z,85.15
2019-02-16T21:45:31.162Z,84.32
2019-02-16T21:47:55.334Z,76.20
2019-02-16T21:50:03.882Z,78.28
2019-02-16T21:52:12.978Z,79.10
2019-02-16T21:54:21.511Z,81.02
2019-02-16T21:56:30.678Z,78.90
2019-02-16T22:00:56.641Z,72.92
2019-02-16T22:03:10.626Z,85.20
2019-02-16T22:05:16.744Z,86.45
2019-02-16T22:07:27.804Z,76.55
2019-02-16T22:09:33.898Z,82.10
2019-02-16T22:11:44.686Z,77.17
2019-02-16T22:13:51.066Z,81.82
2019-02-16T22:15:57.426Z,79.30
2019-02-16T22:18:03.769Z,82.02
2019-02-16T22:20:11.871Z,86.08
2019-02-16T22:22:20.709Z,73.87
2019-02-16T22:24:28.314Z,73.02
2019-02-16T22:26:34.676Z,76.65
2019-02-16T22:28:40.914Z,73.97
2019-02-16T22:30:47.317Z,79.32
2019-02-16T22:32:54.576Z,76.10
2019-02-16T22:35:02.499Z,79.20
2019-02-16T22:37:09.059Z,77.32
2019-02-16T22:39:16.861Z,74.05
2019-02-16T22:41:24.795Z,72.47
2019-02-16T22:43:31.155Z,80.28
2019-02-16T22:45:37.544Z,77.50
2019-02-16T22:47:43.841Z,81.80
2019-02-16T22:49:50.153Z,83.50
2019-02-16T22:51:58.149Z,71.62
2019-02-16T22:54:04.364Z,86.47
2019-02-16T22:56:10.795Z,72.17
2019-02-16T22:58:28.255Z,85.38
2019-02-16T23:00:27.674Z,78.70
2019-02-16T23:02:35.468Z,74.00
2019-02-16T23:04:41.682Z,73.75
2019-02-16T23:06:47.853Z,78.55
2019-02-16T23:08:54.107Z,72.45
2019-02-16T23:11:00.287Z,75.55
2019-02-16T23:13:07.594Z,71.12
2019-02-16T23:15:14.052Z,69.12
2019-02-16T23:17:20.441Z,67.97
2019-02-16T23:19:26.801Z,68.15
2019-02-16T23:21:33.044Z,66.20
2019-02-16T23:23:39.203Z,66.65
2019-02-16T23:25:45.679Z,70.87
2019-02-16T23:27:52.051Z,75.45
2019-02-16T23:29:58.287Z,64.50
2019-02-16T23:32:04.553Z,71.25
2019-02-16T23:34:10.804Z,74.87
2019-02-16T23:36:50.538Z,67.82
2019-02-16T23:38:57.035Z,71.15
2019-02-16T23:41:03.477Z,74.77
2019-02-16T23:43:09.788Z,68.72
2019-02-16T23:45:16.190Z,62.33
2019-02-16T23:47:22.540Z,71.00
2019-02-16T23:49:28.701Z,66.85
2019-02-16T23:51:35.080Z,65.92
2019-02-16T23:53:41.268Z,71.85
2019-02-16T23:55:47.505Z,65.08
2019-02-16T23:57:53.878Z,60.00
